Briefing drone pour Saint-jean-de-braye

Rechercher une autre localisation

Conditions de vol :


Nous sommes le : Mardi 28 septembre 2021
Il est 22:55 UTC (00:55 LT)

Lever de soleil : 05:20 UTC (07:20 LT)
Coucher de soleil : 18:04 UTC (20:04 LT)

Météo

L'essentiel des conditions de vol

VIGILANCE MÉTÉO FRANCE - Loiret (45)
Pas de vigilances particulieres
CARTE TEMSI
CARTES DES FRONTS
METAR de LFOJ
LFOJ 272230Z AUTO 23004KT 210V280 CAVOK 11/08 Q1023 NOSIG

Date d'émission: 27/09/2021
Heure d'émission: 22:30 UTC
Vent: 230° (variable du 210° au 280°) pour 4 KT (7 km/h)
Visibilité horizontale: > 10 km
Plafond : Plafond et visibilité OK (CAVOK)
Température: 11 °C
Point de rosée: 8 °C
Humidité: 82%
Pression (QNH): 1023 hPa
Conditions: Pas de changement dans les 2 heures (NOSIG)
TAF de LFOJ
AMD LFOJ 272254Z 2722/2821 CNL

Conditions prévues :

Heure d'émission : Bulletin éffectué le 27 à 22:00 UTC
Prévision : Valide du 27 a 22:00 UTC au 28 a 21:00 UTC
Nuages : à 0ft (0 m)
WEBCAM POUR SAINT-JEAN-DE-BRAYE

Réglementation

Voler en sécurité

CARTES AERONAUTIQUE 1/500.000
CARTES VAC (LFOJ)
SUP AIP




Chargement des AIP...
NOTAM (SAINT-JEAN-DE-BRAYE + Terrain à proximité / FIR )




Chargement des NOTAMS...
CONTACT PREFECTURE 45


Avertissement : Les données mises à disposition sont indicatives. Oxygène Drone ne pourra être tenu responsable de dégâts causés aux biens et aux personnes.